ES-0162 weather

Aeródromo Loring
El Molar, Madrid, Spain

Public forecast

Using degrees Celsius for public forecast. Weather courtesy of forecast.io.

Closest aviation weather report (METAR) to Aeródromo Loring

Closest report is Adolfo Suárez Madrid–Barajas Airport, 11.4 nm (21.1 km) S. Retrieved 2019/10/15 02:30 UTC (0 seconds ago):

LEMD 150230Z 28009KT 250V310 CAVOK 10/03 Q1019 NOSIG

Closest aviation forecast (TAF) to Aeródromo Loring

Closest forecast is Adolfo Suárez Madrid–Barajas Airport, 11.4 nm (21.1 km) S. Retrieved 2019-10-15 00:31 UTC (2 hours ago):

TAF LEMD 142300Z 1500/1606 VRB05KT 9999 FEW050 TX18/1515Z TN06/1506Z TEMPO 1500/1504 26010KT PROB30 TEMPO 1514/1518 23010KT